^^
Saratoga-Weather Station Historical Data
Daily Summary for April 25, 2020 Units:  English    Metric   Both
Daily Weekly Monthly Yearly Custom
  High: Low: Average:
Temperature: 68.7 °F 44.8 °F 57.4 °F
Dew Point: 43.2 °F 37.9 °F 40.6 °F
Humidity: 82% 36% 56%
Wind Speed: 9mph 0mph 1.6mph
Wind Gust: 12mph - -
Wind- - South
Pressure: 29.9 in 29.8 in -
Precipitation: 0 in    
Historical Graphs
 
 
Tabular Data for April 25, 2020
Time Temperature Dew Point Pressure Wind Wind Speed Wind Gust Humidity Rainfall Rate (Hourly) solar
00:00 56.8 °F 42.3 °F 29.9 in WSW 2 mph 3 mph 58% 0 in 0 W/m2
00:05 56.8 °F 42.3 °F 29.9 in WSW 2 mph 4 mph 58% 0 in 0 W/m2
00:10 57 °F 42.4 °F 29.9 in WSW 0.9 mph 2 mph 58% 0 in 0 W/m2
00:15 57 °F 42.4 °F 29.9 in WSW 2.9 mph 4 mph 58% 0 in 0 W/m2
00:20 57.2 °F 42.6 °F 29.9 in West 2.9 mph 3 mph 58% 0 in 0 W/m2
00:25 57.2 °F 42.6 °F 29.9 in WSW 0.9 mph 4 mph 58% 0 in 0 W/m2
00:30 57.2 °F 42.6 °F 29.9 in WSW 2 mph 3 mph 58% 0 in 0 W/m2
00:35 57 °F 42.4 °F 29.9 in West 0.9 mph 3 mph 58% 0 in 0 W/m2
00:40 56.8 °F 42.3 °F 29.9 in WSW 4 mph 4 mph 58% 0 in 0 W/m2
00:45 57 °F 42.4 °F 29.9 in West 2 mph 4 mph 58% 0 in 0 W/m2
00:50 57 °F 42.8 °F 29.9 in West 2.9 mph 4 mph 59% 0 in 0 W/m2
00:55 57 °F 42.8 °F 29.9 in West 2 mph 4 mph 59% 0 in 0 W/m2
01:00 56.8 °F 43.2 °F 29.9 in WSW 2 mph 3 mph 60% 0 in 0 W/m2
01:05 56.3 °F 43 °F 29.9 in West 4 mph 4 mph 61% 0 in 0 W/m2
01:11 55.8 °F 43 °F 29.9 in West 0.9 mph 4 mph 62% 0 in 0 W/m2
01:16 55.4 °F 43 °F 29.9 in WSW 4.9 mph 6 mph 63% 0 in 0 W/m2
01:21 55.4 °F 43 °F 29.9 in West 2.9 mph 6 mph 63% 0 in 0 W/m2
01:26 55.4 °F 42.6 °F 29.9 in West 2 mph 4 mph 62% 0 in 0 W/m2
01:31 55.2 °F 42.4 °F 29.9 in WSW 4 mph 6 mph 62% 0 in 0 W/m2
01:36 55.2 °F 42.4 °F 29.9 in WSW 2 mph 6 mph 62% 0 in 0 W/m2
01:41 55.2 °F 42.4 °F 29.9 in WSW 4 mph 5 mph 62% 0 in 0 W/m2
01:46 55.2 °F 42.1 °F 29.9 in West 6.9 mph 7 mph 61% 0 in 0 W/m2
01:51 55.4 °F 42.3 °F 29.9 in West 2 mph 4 mph 61% 0 in 0 W/m2
01:56 55.2 °F 41.5 °F 29.9 in WSW 2.9 mph 6 mph 60% 0 in 0 W/m2
02:01 55.2 °F 41.5 °F 29.9 in West 4 mph 4 mph 60% 0 in 0 W/m2
02:06 55.2 °F 41.5 °F 29.9 in West 2 mph 3 mph 60% 0 in 0 W/m2
02:11 55 °F 41.4 °F 29.9 in WSW 4 mph 6 mph 60% 0 in 0 W/m2
02:16 55 °F 41.4 °F 29.9 in WSW 0.9 mph 3 mph 60% 0 in 0 W/m2
02:21 55 °F 41.4 °F 29.9 in WSW 2.9 mph 4 mph 60% 0 in 0 W/m2
02:26 54.9 °F 41.7 °F 29.9 in WNW 2.9 mph 5 mph 61% 0 in 0 W/m2
02:31 54.7 °F 41.5 °F 29.9 in WSW 2.9 mph 3 mph 61% 0 in 0 W/m2
02:36 54.3 °F 41.2 °F 29.9 in West 2 mph 3 mph 61% 0 in 0 W/m2
02:41 54.3 °F 41.5 °F 29.9 in WSW 0.9 mph 2 mph 62% 0 in 0 W/m2
02:46 54 °F 41.2 °F 29.9 in WSW 0.9 mph 1 mph 62% 0 in 0 W/m2
02:51 53.8 °F 41.5 °F 29.9 in WSW 2 mph 3 mph 63% 0 in 0 W/m2
02:56 53.4 °F 41.2 °F 29.9 in WSW 0.9 mph 2 mph 63% 0 in 0 W/m2
03:01 53.1 °F 41.2 °F 29.9 in Calm   3 mph 64% 0 in 0 W/m2
03:06 52.9 °F 41 °F 29.9 in Calm   1 mph 64% 0 in 0 W/m2
03:11 52.5 °F 41.2 °F 29.9 in Calm   2 mph 65% 0 in 0 W/m2
03:16 52.2 °F 40.8 °F 29.9 in Calm     65% 0 in 0 W/m2
03:21 51.8 °F 40.8 °F 29.9 in Calm   1 mph 66% 0 in 0 W/m2
03:26 51.4 °F 40.5 °F 29.9 in WSW 0.9 mph 4 mph 66% 0 in 0 W/m2
03:31 51.4 °F 40.5 °F 29.9 in Calm   1 mph 66% 0 in 0 W/m2
03:36 51.3 °F 40.6 °F 29.9 in Calm   1 mph 67% 0 in 0 W/m2
03:41 51.1 °F 40.5 °F 29.9 in Calm   2 mph 67% 0 in 0 W/m2
03:46 50.7 °F 40.5 °F 29.9 in North 0.9 mph 1 mph 68% 0 in 0 W/m2
03:51 50.5 °F 40.5 °F 29.9 in Calm   3 mph 68% 0 in 0 W/m2
03:56 50.4 °F 40.3 °F 29.9 in Calm   1 mph 68% 0 in 0 W/m2
04:01 50.4 °F 40.3 °F 29.9 in West 0.9 mph 2 mph 68% 0 in 0 W/m2
04:06 50.5 °F 40.5 °F 29.9 in Calm   1 mph 68% 0 in 0 W/m2
04:11 50.5 °F 39.9 °F 29.9 in Calm   1 mph 67% 0 in 0 W/m2
04:16 50.5 °F 39.9 °F 29.9 in West 0.9 mph 1 mph 67% 0 in 0 W/m2
04:21 50.5 °F 40.5 °F 29.9 in Calm   3 mph 68% 0 in 0 W/m2
04:26 50.5 °F 40.5 °F 29.9 in Calm   1 mph 68% 0 in 0 W/m2
04:31 50.4 °F 40.3 °F 29.9 in Calm   3 mph 68% 0 in 0 W/m2
04:36 50.4 °F 40.3 °F 29.9 in Calm     68% 0 in 0 W/m2
04:41 50.2 °F 40.5 °F 29.9 in Calm   2 mph 69% 0 in 0 W/m2
04:46 49.8 °F 40.1 °F 29.9 in WSW 0.9 mph 2 mph 69% 0 in 0 W/m2
04:51 49.8 °F 40.1 °F 29.9 in Calm   1 mph 69% 0 in 0 W/m2
04:56 49.6 °F 40.3 °F 29.9 in WSW 0.9 mph 2 mph 70% 0 in 0 W/m2
05:01 49.3 °F 39.9 °F 29.9 in Calm     70% 0 in 0 W/m2
05:06 48.9 °F 39.9 °F 29.9 in Calm   2 mph 71% 0 in 0 W/m2
05:11 48.7 °F 39.7 °F 29.9 in Calm   1 mph 71% 0 in 0 W/m2
05:16 48.6 °F 39.9 °F 29.9 in WSW 0.9 mph 1 mph 72% 0 in 0 W/m2
05:21 48.4 °F 39.7 °F 29.9 in WSW 0.9 mph 1 mph 72% 0 in 0 W/m2
05:26 48.2 °F 39.6 °F 29.9 in WSW 0.9 mph 1 mph 72% 0 in 0 W/m2
05:31 47.8 °F 39.6 °F 29.9 in Calm     73% 0 in 0 W/m2
05:36 47.7 °F 39.4 °F 29.9 in Calm     73% 0 in 0 W/m2
05:41 47.5 °F 39.6 °F 29.9 in WSW 0.9 mph 1 mph 74% 0 in 0 W/m2
05:46 47.1 °F 39.6 °F 29.9 in Calm   1 mph 75% 0 in 0 W/m2
05:51 46.9 °F 39.4 °F 29.9 in Calm   1 mph 75% 0 in 0 W/m2
05:56 46.9 °F 39.4 °F 29.9 in Calm   1 mph 75% 0 in 0 W/m2
06:01 46.8 °F 39.6 °F 29.9 in Calm     76% 0 in 0 W/m2
06:06 46.6 °F 39.7 °F 29.9 in Calm   1 mph 77% 0 in 0 W/m2
06:11 46.2 °F 39.4 °F 29.9 in Calm     77% 0 in 0 W/m2
06:16 46 °F 39.2 °F 29.9 in Calm     77% 0 in 0 W/m2
06:21 45.7 °F 39.2 °F 29.9 in Calm     78% 0 in 0 W/m2
06:26 45.5 °F 39.4 °F 29.9 in Calm     79% 0 in 5 W/m2
06:31 45.3 °F 39.2 °F 29.9 in Calm     79% 0 in 9 W/m2
06:36 45.1 °F 39.4 °F 29.9 in Calm     80% 0 in 11 W/m2
06:41 45 °F 39.2 °F 29.9 in Calm     80% 0 in 14 W/m2
06:46 45 °F 39.2 °F 29.9 in Calm     80% 0 in 16 W/m2
06:51 44.8 °F 39.4 °F 29.9 in Calm     81% 0 in 19 W/m2
06:56 44.8 °F 39.4 °F 29.9 in Calm     81% 0 in 21 W/m2
07:01 44.8 °F 39.6 °F 29.9 in Calm     82% 0 in 25 W/m2
07:06 45 °F 39.7 °F 29.9 in Calm     82% 0 in 26 W/m2
07:11 45.1 °F 39.9 °F 29.9 in WSW 0.9 mph 1 mph 82% 0 in 30 W/m2
07:17 45.5 °F 40.1 °F 29.9 in Calm     81% 0 in 32 W/m2
07:22 45.9 °F 40.1 °F 29.9 in Calm     80% 0 in 33 W/m2
07:27 46.2 °F 40.1 °F 29.9 in Calm     79% 0 in 35 W/m2
07:32 46.6 °F 39.7 °F 29.9 in East 0.9 mph 1 mph 77% 0 in 37 W/m2
07:37 47.1 °F 40.3 °F 29.9 in Calm   2 mph 77% 0 in 51 W/m2
07:42 47.5 °F 40.3 °F 29.9 in East 0.9 mph 2 mph 76% 0 in 53 W/m2
07:47 47.7 °F 40.5 °F 29.9 in Calm   3 mph 76% 0 in 49 W/m2
07:52 47.8 °F 39.9 °F 29.9 in Calm   1 mph 74% 0 in 46 W/m2
07:57 48.4 °F 40.1 °F 29.9 in Calm   1 mph 73% 0 in 114 W/m2
08:02 48.9 °F 40.3 °F 29.9 in NE 2 mph 4 mph 72% 0 in 195 W/m2
08:07 49.6 °F 40.6 °F 29.9 in ESE 2 mph 2 mph 71% 0 in 209 W/m2
08:12 50.2 °F 40.8 °F 29.9 in Calm   3 mph 70% 0 in 225 W/m2
08:17 50.5 °F 39.9 °F 29.9 in NNW 0.9 mph 3 mph 67% 0 in 239 W/m2
08:22 51.1 °F 40.5 °F 29.9 in NW 0.9 mph 2 mph 67% 0 in 255 W/m2
08:27 51.3 °F 40.3 °F 29.9 in NE 0.9 mph 2 mph 66% 0 in 265 W/m2
08:32 51.4 °F 40.5 °F 29.9 in East 2 mph 2 mph 66% 0 in 283 W/m2
08:37 51.6 °F 40.6 °F 29.9 in Calm   2 mph 66% 0 in 295 W/m2
08:42 52 °F 40.6 °F 29.9 in West 0.9 mph 4 mph 65% 0 in 313 W/m2
08:47 52 °F 40.1 °F 29.9 in West 4 mph 4 mph 64% 0 in 327 W/m2
08:52 52 °F 40.1 °F 29.9 in NE 2 mph 4 mph 64% 0 in 339 W/m2
08:57 52 °F 40.6 °F 29.9 in West 2 mph 3 mph 65% 0 in 352 W/m2
09:02 52.3 °F 41 °F 29.9 in North 2.9 mph 4 mph 65% 0 in 369 W/m2
09:07 52.5 °F 41.5 °F 29.9 in ENE 0.9 mph 2 mph 66% 0 in 383 W/m2
09:12 52.9 °F 41.4 °F 29.9 in NW 2 mph 4 mph 65% 0 in 396 W/m2
09:17 52.9 °F 41.4 °F 29.9 in NNW 2 mph 3 mph 65% 0 in 408 W/m2
09:22 53.4 °F 41.9 °F 29.9 in ENE 2 mph 3 mph 65% 0 in 425 W/m2
09:27 54 °F 42.1 °F 29.9 in SSE 0.9 mph 1 mph 64% 0 in 434 W/m2
09:32 54.3 °F 41.5 °F 29.9 in Calm   2 mph 62% 0 in 452 W/m2
09:37 54.9 °F 41.7 °F 29.9 in NNW 2.9 mph 3 mph 61% 0 in 464 W/m2
09:42 55.4 °F 41.4 °F 29.9 in ESE 6.9 mph 8 mph 59% 0 in 478 W/m2
09:47 55.2 °F 40.6 °F 29.9 in ESE 2 mph 4 mph 58% 0 in 489 W/m2
09:53 55.4 °F 40.5 °F 29.9 in ENE 4 mph 8 mph 57% 0 in 487 W/m2
09:58 55.8 °F 40.8 °F 29.9 in Calm   6 mph 57% 0 in 49 W/m2
10:03 56.1 °F 40.6 °F 29.9 in ESE 2.9 mph 10 mph 56% 0 in 531 W/m2
10:08 56.1 °F 40.1 °F 29.9 in ENE 2 mph 8 mph 55% 0 in 540 W/m2
10:13 56.1 °F 40.1 °F 29.9 in WNW 0.9 mph 2 mph 55% 0 in 555 W/m2
10:18 56.5 °F 41 °F 29.9 in North 2 mph 4 mph 56% 0 in 566 W/m2
10:23 56.8 °F 41.4 °F 29.9 in NE 0.9 mph 6 mph 56% 0 in 575 W/m2
10:29 57.4 °F 40.8 °F 29.9 in NE 8.9 mph 9 mph 54% 0 in 589 W/m2
10:34 57.6 °F 41.5 °F 29.9 in NE 2.9 mph 3 mph 55% 0 in 599 W/m2
10:39 57.7 °F 41.2 °F 29.9 in East 0.9 mph 3 mph 54% 0 in 612 W/m2
10:44 57.9 °F 40.8 °F 29.9 in East 4 mph 8 mph 53% 0 in 619 W/m2
10:49 57.7 °F 40.6 °F 29.9 in ENE 2.9 mph 7 mph 53% 0 in 629 W/m2
10:54 57.7 °F 40.6 °F 29.9 in SSE 2.9 mph 6 mph 53% 0 in 638 W/m2
10:59 58.3 °F 41.7 °F 29.9 in ENE 4 mph 4 mph 54% 0 in 643 W/m2
11:04 58.6 °F 41 °F 29.9 in ESE 0.9 mph 4 mph 52% 0 in 649 W/m2
11:09 59.2 °F 41.5 °F 29.9 in ENE 4 mph 6 mph 52% 0 in 666 W/m2
11:14 59.4 °F 41.7 °F 29.9 in East 6.9 mph 10 mph 52% 0 in 673 W/m2
11:19 59.4 °F 42.8 °F 29.9 in East 8.1 mph 8 mph 54% 0 in 680 W/m2
11:24 59.7 °F 41.5 °F 29.9 in NNE 2.9 mph 9 mph 51% 0 in 687 W/m2
11:29 59.5 °F 41.9 °F 29.9 in WNW 2.9 mph 3 mph 52% 0 in 691 W/m2
11:34 59.5 °F 41.4 °F 29.9 in ESE 4 mph 12 mph 51% 0 in 705 W/m2
11:39 59.2 °F 41.5 °F 29.9 in NE 0.9 mph 5 mph 52% 0 in 707 W/m2
11:44 59.4 °F 40.6 °F 29.9 in East 4 mph 9 mph 50% 0 in 712 W/m2
11:49 59.7 °F 41.5 °F 29.9 in NE 2.9 mph 5 mph 51% 0 in 719 W/m2
11:54 60.1 °F 42.4 °F 29.9 in NW 4 mph 6 mph 52% 0 in 731 W/m2
11:59 60.4 °F 41.7 °F 29.9 in Calm   2 mph 50% 0 in 731 W/m2
12:04 60.4 °F 41.2 °F 29.9 in NW 0.9 mph 3 mph 49% 0 in 735 W/m2
12:09 60.6 °F 41.9 °F 29.9 in East 2.9 mph 9 mph 50% 0 in 744 W/m2
12:14 60.3 °F 41.5 °F 29.9 in WNW 0.9 mph 3 mph 50% 0 in 738 W/m2
12:19 60.1 °F 41.4 °F 29.9 in NE 0.9 mph 7 mph 50% 0 in 747 W/m2
12:24 60.3 °F 42.6 °F 29.9 in East 9 mph 9 mph 52% 0 in 751 W/m2
12:29 60.6 °F 41.9 °F 29.9 in NW 0.9 mph 2 mph 50% 0 in 765 W/m2
12:34 61.2 °F 42.4 °F 29.9 in NNW 9 mph 9 mph 50% 0 in 763 W/m2
12:39 61.3 °F 42.1 °F 29.9 in SW 0.9 mph 2 mph 49% 0 in 765 W/m2
12:44 61.5 °F 42.3 °F 29.9 in North 0.9 mph 8 mph 49% 0 in 768 W/m2
12:49 61.7 °F 41.9 °F 29.9 in NNW 0.9 mph 4 mph 48% 0 in 768 W/m2
12:54 61.9 °F 40.8 °F 29.9 in West 0.9 mph 8 mph 46% 0 in 779 W/m2
12:59 62.2 °F 40.6 °F 29.9 in NW 4.9 mph 5 mph 45% 0 in 777 W/m2
13:04 62.4 °F 39.6 °F 29.9 in NE 4 mph 8 mph 43% 0 in 788 W/m2
13:09 62.8 °F 40.5 °F 29.9 in WNW 6.9 mph 7 mph 44% 0 in 784 W/m2
13:14 62.6 °F 39.7 °F 29.9 in Calm   4 mph 43% 0 in 780 W/m2
13:19 62.8 °F 39.9 °F 29.9 in NNW 0.9 mph 5 mph 43% 0 in 777 W/m2
13:24 62.8 °F 39.9 °F 29.9 in East 2.9 mph 8 mph 43% 0 in 786 W/m2
13:29 63.1 °F 39 °F 29.9 in ESE 0.9 mph 3 mph 41% 0 in 788 W/m2
13:34 63.3 °F 38.7 °F 29.9 in Calm   8 mph 40% 0 in 793 W/m2
13:39 63.3 °F 39.9 °F 29.8 in Calm   4 mph 42% 0 in 782 W/m2
13:44 63.9 °F 41 °F 29.8 in ENE 2.9 mph 9 mph 43% 0 in 784 W/m2
13:49 63.9 °F 39.7 °F 29.8 in ENE 2 mph 3 mph 41% 0 in 786 W/m2
13:54 63.9 °F 40.3 °F 29.8 in ENE 2 mph 8 mph 42% 0 in 782 W/m2
13:59 64.2 °F 40.6 °F 29.8 in ESE 2 mph 9 mph 42% 0 in 784 W/m2
14:04 64.6 °F 39.7 °F 29.8 in NNE 2.9 mph 3 mph 40% 0 in 779 W/m2
14:09 64.6 °F 39 °F 29.8 in WNW 4 mph 9 mph 39% 0 in 780 W/m2
14:14 64.8 °F 38.5 °F 29.8 in North 0.9 mph 4 mph 38% 0 in 777 W/m2
14:19 64.8 °F 39.9 °F 29.8 in NW 0.9 mph 3 mph 40% 0 in 772 W/m2
14:24 64.9 °F 38.7 °F 29.8 in East 9 mph 9 mph 38% 0 in 770 W/m2
14:29 64.6 °F 39.7 °F 29.8 in NE 4 mph 4 mph 40% 0 in 766 W/m2
14:35 64.8 °F 39.9 °F 29.8 in West 2 mph 2 mph 40% 0 in 761 W/m2
14:40 64.8 °F 39.2 °F 29.8 in SE 2.9 mph 4 mph 39% 0 in 756 W/m2
14:45 64.9 °F 39.4 °F 29.8 in North 2 mph 5 mph 39% 0 in 745 W/m2
14:50 65.7 °F 40.1 °F 29.8 in East 2.9 mph 6 mph 39% 0 in 744 W/m2
14:55 65.8 °F 38.1 °F 29.8 in SE 2.9 mph 7 mph 36% 0 in 740 W/m2
15:00 65.7 °F 39.4 °F 29.8 in WNW 2 mph 2 mph 38% 0 in 737 W/m2
15:05 65.7 °F 37.9 °F 29.8 in East 2.9 mph 6 mph 36% 0 in 731 W/m2
15:10 65.5 °F 39.2 °F 29.8 in Calm   2 mph 38% 0 in 719 W/m2
15:15 65.8 °F 39.6 °F 29.8 in Calm   5 mph 38% 0 in 714 W/m2
15:20 66.2 °F 39.9 °F 29.8 in SSW 2 mph 9 mph 38% 0 in 710 W/m2
15:25 66 °F 39 °F 29.8 in WNW 2 mph 3 mph 37% 0 in 700 W/m2
15:30 65.7 °F 38.7 °F 29.8 in NNW 4 mph 6 mph 37% 0 in 694 W/m2
15:35 66 °F 39 °F 29.8 in NW 2 mph 8 mph 37% 0 in 686 W/m2
15:40 66.2 °F 41.2 °F 29.8 in East 6 mph 6 mph 40% 0 in 679 W/m2
15:45 66.6 °F 41.5 °F 29.8 in WNW 2.9 mph 3 mph 40% 0 in 671 W/m2
15:50 66.9 °F 41.2 °F 29.8 in WSW 4 mph 5 mph 39% 0 in 657 W/m2
15:55 66.9 °F 41.2 °F 29.8 in NNW 2.9 mph 6 mph 39% 0 in 650 W/m2
16:00 66.9 °F 40.5 °F 29.8 in NE 2.9 mph 5 mph 38% 0 in 640 W/m2
16:05 67.1 °F 41.9 °F 29.8 in Calm   6 mph 40% 0 in 631 W/m2
16:10 67.3 °F 42.1 °F 29.8 in ESE 2.9 mph 3 mph 40% 0 in 626 W/m2
16:15 67.3 °F 40.8 °F 29.8 in SE 2 mph 5 mph 38% 0 in 613 W/m2
16:20 67.3 °F 40.8 °F 29.8 in NW 2.9 mph 8 mph 38% 0 in 603 W/m2
16:25 67.5 °F 41 °F 29.8 in NE 0.9 mph 4 mph 38% 0 in 591 W/m2
16:30 67.8 °F 41.4 °F 29.8 in WNW 0.9 mph 3 mph 38% 0 in 580 W/m2
16:35 68 °F 40.8 °F 29.8 in NNW 2.9 mph 4 mph 37% 0 in 575 W/m2
16:40 68.2 °F 41.5 °F 29.8 in East 2 mph 4 mph 38% 0 in 564 W/m2
16:46 68.2 °F 41 °F 29.8 in NW 0.9 mph 3 mph 37% 0 in 545 W/m2
16:51 68 °F 40.8 °F 29.8 in West 0.9 mph 1 mph 37% 0 in 533 W/m2
16:56 68 °F 41.4 °F 29.8 in NNW 0.9 mph 2 mph 38% 0 in 524 W/m2
17:01 68.2 °F 41.5 °F 29.8 in NE 4.9 mph 5 mph 38% 0 in 512 W/m2
17:06 68.2 °F 40.3 °F 29.8 in Calm   4 mph 36% 0 in 501 W/m2
17:11 68.2 °F 41.5 °F 29.8 in WNW 0.9 mph 4 mph 38% 0 in 489 W/m2
17:16 68.2 °F 41 °F 29.8 in NNW 4 mph 5 mph 37% 0 in 478 W/m2
17:21 68.5 °F 40.5 °F 29.8 in SSE 2 mph 4 mph 36% 0 in 464 W/m2
17:26 68.4 °F 41 °F 29.8 in East 2.9 mph 6 mph 37% 0 in 450 W/m2
17:31 68.4 °F 41.7 °F 29.8 in WNW 2.9 mph 4 mph 38% 0 in 441 W/m2
17:36 68.4 °F 41 °F 29.8 in Calm   2 mph 37% 0 in 432 W/m2
17:42 68.5 °F 41.9 °F 29.8 in Calm   9 mph 38% 0 in 415 W/m2
17:47 68.7 °F 41.4 °F 29.8 in East 2 mph 4 mph 37% 0 in 401 W/m2
17:52 68.7 °F 41.4 °F 29.8 in North 2.9 mph 6 mph 37% 0 in 388 W/m2
17:57 68.4 °F 41 °F 29.8 in East 2.9 mph 3 mph 37% 0 in 374 W/m2
18:02 68.4 °F 41 °F 29.8 in Calm   2 mph 37% 0 in 364 W/m2
18:07 68.5 °F 41.2 °F 29.8 in SSE 0.9 mph 9 mph 37% 0 in 348 W/m2
18:12 68.5 °F 41.9 °F 29.8 in NNE 2.9 mph 6 mph 38% 0 in 338 W/m2
18:17 68.4 °F 41.7 °F 29.8 in ENE 4 mph 9 mph 38% 0 in 322 W/m2
18:22 68.2 °F 41.5 °F 29.8 in NNW 2 mph 3 mph 38% 0 in 309 W/m2
18:27 68.2 °F 42.3 °F 29.8 in SE 2 mph 5 mph 39% 0 in 294 W/m2
18:32 68.2 °F 41 °F 29.8 in NE 2 mph 3 mph 37% 0 in 283 W/m2
18:37 68.5 °F 41.2 °F 29.8 in East 2.9 mph 4 mph 37% 0 in 269 W/m2
18:42 68.4 °F 41 °F 29.8 in SSE 0.9 mph 5 mph 37% 0 in 258 W/m2
18:47 67.8 °F 40.6 °F 29.8 in SSE 0.9 mph 7 mph 37% 0 in 237 W/m2
18:52 67.3 °F 40.8 °F 29.8 in SW 0.9 mph 2 mph 38% 0 in 227 W/m2
18:57 67.5 °F 41 °F 29.8 in SW 2 mph 2 mph 38% 0 in 211 W/m2
19:02 67.5 °F 40.3 °F 29.8 in NNW 2.9 mph 5 mph 37% 0 in 199 W/m2
19:08 67.3 °F 40.1 °F 29.8 in ENE 0.9 mph 5 mph 37% 0 in 179 W/m2
19:13 67.1 °F 40.6 °F 29.8 in South 0.9 mph 2 mph 38% 0 in 162 W/m2
19:18 67.3 °F 40.1 °F 29.8 in WNW 0.9 mph 2 mph 37% 0 in 146 W/m2
19:23 67.3 °F 40.1 °F 29.8 in Calm   1 mph 37% 0 in 132 W/m2
19:28 67.3 °F 40.8 °F 29.8 in Calm   2 mph 38% 0 in 118 W/m2
19:33 67.3 °F 40.1 °F 29.8 in North 2 mph 4 mph 37% 0 in 104 W/m2
19:38 67.1 °F 39.2 °F 29.8 in North 0.9 mph 3 mph 36% 0 in 90 W/m2
19:43 66.9 °F 39 °F 29.8 in NW 2.9 mph 3 mph 36% 0 in 79 W/m2
19:48 66.6 °F 39.6 °F 29.8 in West 2 mph 6 mph 37% 0 in 65 W/m2
19:53 66.4 °F 39.4 °F 29.8 in NE 2 mph 4 mph 37% 0 in 54 W/m2
19:58 65.8 °F 38.8 °F 29.8 in North 0.9 mph 6 mph 37% 0 in 46 W/m2
20:03 65.7 °F 39.4 °F 29.8 in NNW 0.9 mph 3 mph 38% 0 in 32 W/m2
20:08 65.1 °F 39.6 °F 29.8 in East 2 mph 2 mph 39% 0 in 25 W/m2
20:13 64.2 °F 40.6 °F 29.8 in Calm   2 mph 42% 0 in 21 W/m2
20:18 63.5 °F 39.9 °F 29.8 in ENE 0.9 mph 4 mph 42% 0 in 18 W/m2
20:23 62.8 °F 39.4 °F 29.8 in SE 2.9 mph 3 mph 42% 0 in 14 W/m2
20:28 62.2 °F 40.6 °F 29.8 in Calm   1 mph 45% 0 in 12 W/m2
20:33 61.5 °F 41.2 °F 29.8 in SE 0.9 mph 1 mph 47% 0 in 11 W/m2
20:38 61 °F 41.2 °F 29.8 in SE 0.9 mph 1 mph 48% 0 in 7 W/m2
20:43 60.1 °F 40.8 °F 29.8 in SE 0.9 mph 2 mph 49% 0 in 5 W/m2
20:48 59.4 °F 40.6 °F 29.8 in Calm   2 mph 50% 0 in 0 W/m2
20:54 58.5 °F 40.5 °F 29.8 in SE 0.9 mph 2 mph 51% 0 in 0 W/m2
20:59 57.9 °F 40.8 °F 29.8 in Calm   2 mph 53% 0 in 0 W/m2
21:04 57.4 °F 40.5 °F 29.8 in Calm   2 mph 53% 0 in 0 W/m2
21:09 56.8 °F 40.5 °F 29.8 in SE 0.9 mph 1 mph 54% 0 in 0 W/m2
21:14 56.3 °F 40.3 °F 29.8 in Calm   1 mph 55% 0 in 0 W/m2
21:19 55.9 °F 40.5 °F 29.8 in Calm   1 mph 56% 0 in 0 W/m2
21:24 55.6 °F 40.6 °F 29.8 in SE 0.9 mph 2 mph 57% 0 in 0 W/m2
21:29 55.2 °F 40.6 °F 29.8 in Calm   2 mph 58% 0 in 0 W/m2
21:34 54.9 °F 40.3 °F 29.8 in Calm   1 mph 58% 0 in 0 W/m2
21:39 54.5 °F 40.5 °F 29.8 in SE 0.9 mph 1 mph 59% 0 in 0 W/m2
21:44 54.1 °F 40.6 °F 29.8 in Calm     60% 0 in 0 W/m2
21:49 54 °F 40.5 °F 29.8 in SE 0.9 mph 2 mph 60% 0 in 0 W/m2
21:54 53.8 °F 40.3 °F 29.8 in Calm     60% 0 in 0 W/m2
21:59 53.6 °F 40.5 °F 29.8 in Calm   1 mph 61% 0 in 0 W/m2
22:04 53.4 °F 40.6 °F 29.8 in SE 0.9 mph 1 mph 62% 0 in 0 W/m2
22:09 53.1 °F 40.5 °F 29.8 in Calm   1 mph 62% 0 in 0 W/m2
22:14 52.9 °F 40.6 °F 29.8 in Calm     63% 0 in 0 W/m2
22:19 52.5 °F 40.6 °F 29.8 in Calm     64% 0 in 0 W/m2
22:24 52.3 °F 41 °F 29.8 in Calm   1 mph 65% 0 in 0 W/m2
22:29 52 °F 40.6 °F 29.8 in Calm     65% 0 in 0 W/m2
22:34 51.8 °F 40.8 °F 29.8 in Calm   1 mph 66% 0 in 0 W/m2
22:39 51.6 °F 40.6 °F 29.8 in Calm     66% 0 in 0 W/m2
22:44 51.4 °F 40.8 °F 29.8 in Calm     67% 0 in 0 W/m2
22:49 51.3 °F 40.6 °F 29.8 in Calm   1 mph 67% 0 in 0 W/m2
22:54 51.3 °F 40.6 °F 29.8 in Calm   1 mph 67% 0 in 0 W/m2
22:59 51.3 °F 40.3 °F 29.8 in Calm   2 mph 66% 0 in 0 W/m2
23:04 51.3 °F 40.3 °F 29.8 in South 3 mph 3 mph 66% 0 in 0 W/m2
23:09 51.3 °F 40.3 °F 29.8 in Calm     66% 0 in 0 W/m2
23:14 51.3 °F 40.3 °F 29.8 in South 0.9 mph 3 mph 66% 0 in 0 W/m2
23:19 51.1 °F 40.1 °F 29.8 in South 0.9 mph 1 mph 66% 0 in 0 W/m2
23:24 51.1 °F 40.1 °F 29.8 in Calm     66% 0 in 0 W/m2
23:29 50.9 °F 39.9 °F 29.8 in South 2 mph 2 mph 66% 0 in 0 W/m2
23:34 50.7 °F 39.7 °F 29.8 in Calm   1 mph 66% 0 in 0 W/m2
23:39 50.9 °F 39.9 °F 29.8 in SW 0.9 mph 2 mph 66% 0 in 0 W/m2
23:44 51.3 °F 39.6 °F 29.8 in South 0.9 mph 4 mph 64% 0 in 0 W/m2
23:49 51.4 °F 39.7 °F 29.8 in Calm   1 mph 64% 0 in 0 W/m2
23:54 51.4 °F 39.7 °F 29.8 in Calm   2 mph 64% 0 in 0 W/m2
23:59 51.3 °F 39.6 °F 29.8 in SW 0.9 mph 3 mph 64% 0 in 0 W/m2
Juneau County Weather
Compliments of Weather Underground - 4 mb